sensor_id;sensor_type;location;lat;lon;timestamp;P1;durP1;ratioP1;P2;durP2;ratioP2
5555;SDS011;2801;50.972;7.856;2023-02-19T00:01:30;1.70;;;1.00;;
5555;SDS011;2801;50.972;7.856;2023-02-19T00:04:04;1.40;;;0.93;;
5555;SDS011;2801;50.972;7.856;2023-02-19T00:06:35;1.83;;;0.90;;
5555;SDS011;2801;50.972;7.856;2023-02-19T00:09:02;2.20;;;0.85;;
5555;SDS011;2801;50.972;7.856;2023-02-19T00:11:30;1.47;;;0.83;;
5555;SDS011;2801;50.972;7.856;2023-02-19T00:13:59;2.28;;;1.20;;
5555;SDS011;2801;50.972;7.856;2023-02-19T00:16:46;2.60;;;1.20;;
5555;SDS011;2801;50.972;7.856;2023-02-19T00:19:15;3.10;;;1.60;;
5555;SDS011;2801;50.972;7.856;2023-02-19T00:21:46;3.60;;;1.77;;
5555;SDS011;2801;50.972;7.856;2023-02-19T00:24:16;3.77;;;1.93;;
5555;SDS011;2801;50.972;7.856;2023-02-19T00:26:43;8.57;;;2.00;;
5555;SDS011;2801;50.972;7.856;2023-02-19T00:29:13;5.10;;;2.00;;
5555;SDS011;2801;50.972;7.856;2023-02-19T00:31:43;6.88;;;2.80;;
5555;SDS011;2801;50.972;7.856;2023-02-19T00:34:11;6.53;;;3.00;;
5555;SDS011;2801;50.972;7.856;2023-02-19T00:36:39;7.30;;;3.10;;
5555;SDS011;2801;50.972;7.856;2023-02-19T00:39:09;7.97;;;3.13;;
5555;SDS011;2801;50.972;7.856;2023-02-19T00:41:40;8.52;;;3.25;;
5555;SDS011;2801;50.972;7.856;2023-02-19T00:44:08;6.40;;;3.28;;
5555;SDS011;2801;50.972;7.856;2023-02-19T00:46:39;8.68;;;3.40;;
5555;SDS011;2801;50.972;7.856;2023-02-19T00:49:10;8.13;;;3.30;;
5555;SDS011;2801;50.972;7.856;2023-02-19T00:51:43;7.10;;;3.25;;
5555;SDS011;2801;50.972;7.856;2023-02-19T00:54:11;8.40;;;3.63;;
5555;SDS011;2801;50.972;7.856;2023-02-19T00:56:39;8.13;;;4.03;;
5555;SDS011;2801;50.972;7.856;2023-02-19T00:59:06;11.95;;;5.13;;
5555;SDS011;2801;50.972;7.856;2023-02-19T01:01:33;14.88;;;5.45;;
5555;SDS011;2801;50.972;7.856;2023-02-19T01:04:00;18.45;;;7.28;;
5555;SDS011;2801;50.972;7.856;2023-02-19T01:06:28;18.70;;;7.18;;
5555;SDS011;2801;50.972;7.856;2023-02-19T01:08:57;17.38;;;7.72;;
5555;SDS011;2801;50.972;7.856;2023-02-19T01:11:24;22.23;;;8.10;;
5555;SDS011;2801;50.972;7.856;2023-02-19T01:13:55;21.80;;;8.40;;
5555;SDS011;2801;50.972;7.856;2023-02-19T01:16:23;25.02;;;8.60;;
5555;SDS011;2801;50.972;7.856;2023-02-19T01:18:50;24.65;;;9.48;;
5555;SDS011;2801;50.972;7.856;2023-02-19T01:21:22;18.92;;;7.85;;
5555;SDS011;2801;50.972;7.856;2023-02-19T01:23:52;18.90;;;7.82;;
5555;SDS011;2801;50.972;7.856;2023-02-19T01:26:23;16.70;;;6.50;;
5555;SDS011;2801;50.972;7.856;2023-02-19T01:28:53;20.33;;;6.97;;
5555;SDS011;2801;50.972;7.856;2023-02-19T01:31:21;17.30;;;6.60;;
5555;SDS011;2801;50.972;7.856;2023-02-19T01:33:51;13.27;;;6.05;;
5555;SDS011;2801;50.972;7.856;2023-02-19T01:36:22;15.53;;;6.80;;
5555;SDS011;2801;50.972;7.856;2023-02-19T01:38:50;20.40;;;7.90;;
5555;SDS011;2801;50.972;7.856;2023-02-19T01:41:18;17.88;;;8.00;;
5555;SDS011;2801;50.972;7.856;2023-02-19T01:46:26;25.02;;;9.43;;
5555;SDS011;2801;50.972;7.856;2023-02-19T01:48:56;18.42;;;8.05;;
5555;SDS011;2801;50.972;7.856;2023-02-19T01:51:54;27.92;;;10.18;;
5555;SDS011;2801;50.972;7.856;2023-02-19T01:54:47;25.57;;;9.50;;
5555;SDS011;2801;50.972;7.856;2023-02-19T01:57:16;27.50;;;11.20;;
5555;SDS011;2801;50.972;7.856;2023-02-19T01:59:47;26.50;;;10.40;;
5555;SDS011;2801;50.972;7.856;2023-02-19T02:02:22;29.30;;;11.45;;
5555;SDS011;2801;50.972;7.856;2023-02-19T02:04:54;27.67;;;10.93;;
5555;SDS011;2801;50.972;7.856;2023-02-19T02:07:23;25.48;;;10.27;;
5555;SDS011;2801;50.972;7.856;2023-02-19T02:10:08;14.10;;;6.95;;
5555;SDS011;2801;50.972;7.856;2023-02-19T02:12:48;28.43;;;10.00;;
5555;SDS011;2801;50.972;7.856;2023-02-19T02:15:18;23.08;;;9.13;;
5555;SDS011;2801;50.972;7.856;2023-02-19T02:20:57;18.95;;;8.50;;
5555;SDS011;2801;50.972;7.856;2023-02-19T02:32:53;22.05;;;10.30;;
5555;SDS011;2801;50.972;7.856;2023-02-19T02:35:52;24.20;;;10.40;;
5555;SDS011;2801;50.972;7.856;2023-02-19T02:38:46;28.75;;;11.88;;
5555;SDS011;2801;50.972;7.856;2023-02-19T02:41:15;31.33;;;11.97;;
5555;SDS011;2801;50.972;7.856;2023-02-19T02:43:42;28.98;;;12.05;;
5555;SDS011;2801;50.972;7.856;2023-02-19T02:46:09;34.13;;;12.38;;
5555;SDS011;2801;50.972;7.856;2023-02-19T02:48:44;38.50;;;13.00;;
5555;SDS011;2801;50.972;7.856;2023-02-19T02:57:00;32.95;;;11.35;;
5555;SDS011;2801;50.972;7.856;2023-02-19T02:59:30;30.77;;;10.73;;
5555;SDS011;2801;50.972;7.856;2023-02-19T03:02:04;29.23;;;9.48;;
5555;SDS011;2801;50.972;7.856;2023-02-19T03:05:29;15.63;;;7.03;;
5555;SDS011;2801;50.972;7.856;2023-02-19T03:08:08;18.65;;;6.82;;
5555;SDS011;2801;50.972;7.856;2023-02-19T03:13:57;20.83;;;7.17;;
5555;SDS011;2801;50.972;7.856;2023-02-19T03:20:27;18.65;;;6.70;;
5555;SDS011;2801;50.972;7.856;2023-02-19T03:22:59;19.73;;;7.30;;
5555;SDS011;2801;50.972;7.856;2023-02-19T03:25:29;18.33;;;6.50;;
5555;SDS011;2801;50.972;7.856;2023-02-19T03:28:17;18.77;;;5.97;;
5555;SDS011;2801;50.972;7.856;2023-02-19T03:31:08;13.68;;;5.45;;
5555;SDS011;2801;50.972;7.856;2023-02-19T03:33:41;12.88;;;5.00;;
5555;SDS011;2801;50.972;7.856;2023-02-19T03:36:12;10.60;;;4.20;;
5555;SDS011;2801;50.972;7.856;2023-02-19T03:38:47;11.00;;;4.20;;
5555;SDS011;2801;50.972;7.856;2023-02-19T03:47:16;11.20;;;4.63;;
5555;SDS011;2801;50.972;7.856;2023-02-19T03:49:57;11.48;;;4.32;;
5555;SDS011;2801;50.972;7.856;2023-02-19T03:52:40;13.85;;;4.32;;
5555;SDS011;2801;50.972;7.856;2023-02-19T03:55:42;23.73;;;7.53;;
5555;SDS011;2801;50.972;7.856;2023-02-19T03:58:57;34.03;;;10.98;;
5555;SDS011;2801;50.972;7.856;2023-02-19T04:01:51;33.13;;;10.40;;
5555;SDS011;2801;50.972;7.856;2023-02-19T04:04:27;24.43;;;9.83;;
5555;SDS011;2801;50.972;7.856;2023-02-19T04:06:59;35.58;;;12.68;;
5555;SDS011;2801;50.972;7.856;2023-02-19T04:09:35;39.78;;;12.27;;
5555;SDS011;2801;50.972;7.856;2023-02-19T04:12:09;36.77;;;12.03;;
5555;SDS011;2801;50.972;7.856;2023-02-19T04:14:39;29.27;;;10.60;;
5555;SDS011;2801;50.972;7.856;2023-02-19T04:17:20;29.50;;;9.77;;
5555;SDS011;2801;50.972;7.856;2023-02-19T04:19:54;31.60;;;9.77;;
5555;SDS011;2801;50.972;7.856;2023-02-19T04:22:24;25.45;;;9.15;;
5555;SDS011;2801;50.972;7.856;2023-02-19T04:24:52;21.00;;;6.88;;
5555;SDS011;2801;50.972;7.856;2023-02-19T04:27:21;10.50;;;4.45;;
5555;SDS011;2801;50.972;7.856;2023-02-19T04:29:48;12.33;;;4.60;;
5555;SDS011;2801;50.972;7.856;2023-02-19T04:32:15;12.03;;;4.30;;
5555;SDS011;2801;50.972;7.856;2023-02-19T04:34:42;10.43;;;4.20;;
5555;SDS011;2801;50.972;7.856;2023-02-19T04:37:08;7.07;;;3.33;;
5555;SDS011;2801;50.972;7.856;2023-02-19T04:39:35;10.70;;;3.80;;
5555;SDS011;2801;50.972;7.856;2023-02-19T04:42:02;18.67;;;5.70;;
5555;SDS011;2801;50.972;7.856;2023-02-19T04:44:29;17.83;;;6.07;;
5555;SDS011;2801;50.972;7.856;2023-02-19T04:46:56;18.73;;;6.87;;
5555;SDS011;2801;50.972;7.856;2023-02-19T04:49:23;21.57;;;7.47;;
5555;SDS011;2801;50.972;7.856;2023-02-19T04:51:50;24.43;;;8.03;;
5555;SDS011;2801;50.972;7.856;2023-02-19T04:54:16;23.23;;;7.97;;
5555;SDS011;2801;50.972;7.856;2023-02-19T04:56:43;25.07;;;8.57;;
5555;SDS011;2801;50.972;7.856;2023-02-19T04:59:12;27.42;;;9.13;;
5555;SDS011;2801;50.972;7.856;2023-02-19T05:01:38;28.47;;;9.77;;
5555;SDS011;2801;50.972;7.856;2023-02-19T05:04:05;32.53;;;10.03;;
5555;SDS011;2801;50.972;7.856;2023-02-19T05:06:32;32.42;;;10.60;;
5555;SDS011;2801;50.972;7.856;2023-02-19T05:08:59;27.70;;;10.73;;
5555;SDS011;2801;50.972;7.856;2023-02-19T05:11:26;34.22;;;10.75;;
5555;SDS011;2801;50.972;7.856;2023-02-19T05:13:56;34.37;;;11.17;;
5555;SDS011;2801;50.972;7.856;2023-02-19T05:16:24;24.07;;;10.27;;
5555;SDS011;2801;50.972;7.856;2023-02-19T05:18:51;25.83;;;10.23;;
5555;SDS011;2801;50.972;7.856;2023-02-19T05:21:17;27.27;;;9.83;;
5555;SDS011;2801;50.972;7.856;2023-02-19T05:23:44;26.80;;;9.80;;
5555;SDS011;2801;50.972;7.856;2023-02-19T05:26:13;25.60;;;10.17;;
5555;SDS011;2801;50.972;7.856;2023-02-19T05:28:44;32.60;;;11.23;;
5555;SDS011;2801;50.972;7.856;2023-02-19T05:31:13;25.60;;;10.17;;
5555;SDS011;2801;50.972;7.856;2023-02-19T05:33:40;24.88;;;9.32;;
5555;SDS011;2801;50.972;7.856;2023-02-19T05:36:10;26.48;;;10.05;;
5555;SDS011;2801;50.972;7.856;2023-02-19T05:38:39;30.25;;;9.85;;
5555;SDS011;2801;50.972;7.856;2023-02-19T05:41:11;24.43;;;9.40;;
5555;SDS011;2801;50.972;7.856;2023-02-19T05:43:44;24.10;;;9.05;;
5555;SDS011;2801;50.972;7.856;2023-02-19T05:46:14;21.80;;;8.13;;
5555;SDS011;2801;50.972;7.856;2023-02-19T05:48:45;25.03;;;9.20;;
5555;SDS011;2801;50.972;7.856;2023-02-19T05:51:15;22.30;;;8.20;;
5555;SDS011;2801;50.972;7.856;2023-02-19T05:53:45;25.20;;;8.33;;
5555;SDS011;2801;50.972;7.856;2023-02-19T05:56:34;19.00;;;8.33;;
5555;SDS011;2801;50.972;7.856;2023-02-19T05:59:07;22.03;;;7.83;;
5555;SDS011;2801;50.972;7.856;2023-02-19T06:01:45;22.20;;;7.60;;
5555;SDS011;2801;50.972;7.856;2023-02-19T06:04:14;23.40;;;8.70;;
5555;SDS011;2801;50.972;7.856;2023-02-19T06:06:42;27.00;;;9.00;;
5555;SDS011;2801;50.972;7.856;2023-02-19T06:09:09;30.10;;;9.43;;
5555;SDS011;2801;50.972;7.856;2023-02-19T06:11:36;28.93;;;9.53;;
5555;SDS011;2801;50.972;7.856;2023-02-19T06:14:05;24.27;;;8.33;;
5555;SDS011;2801;50.972;7.856;2023-02-19T06:16:31;22.73;;;7.60;;
5555;SDS011;2801;50.972;7.856;2023-02-19T06:19:02;25.87;;;8.90;;
5555;SDS011;2801;50.972;7.856;2023-02-19T06:21:30;24.95;;;9.20;;
5555;SDS011;2801;50.972;7.856;2023-02-19T06:23:56;24.83;;;8.77;;
5555;SDS011;2801;50.972;7.856;2023-02-19T06:26:23;19.13;;;7.03;;
5555;SDS011;2801;50.972;7.856;2023-02-19T06:28:51;30.83;;;9.67;;
5555;SDS011;2801;50.972;7.856;2023-02-19T06:31:20;26.97;;;9.67;;
5555;SDS011;2801;50.972;7.856;2023-02-19T06:33:48;23.63;;;9.30;;
5555;SDS011;2801;50.972;7.856;2023-02-19T06:36:17;25.27;;;9.27;;
5555;SDS011;2801;50.972;7.856;2023-02-19T06:38:46;26.17;;;8.80;;
5555;SDS011;2801;50.972;7.856;2023-02-19T06:41:13;30.70;;;9.03;;
5555;SDS011;2801;50.972;7.856;2023-02-19T06:43:40;25.83;;;9.70;;
5555;SDS011;2801;50.972;7.856;2023-02-19T06:46:09;20.37;;;8.80;;
5555;SDS011;2801;50.972;7.856;2023-02-19T06:48:38;29.00;;;9.83;;
5555;SDS011;2801;50.972;7.856;2023-02-19T06:51:08;32.17;;;10.23;;
5555;SDS011;2801;50.972;7.856;2023-02-19T06:53:47;31.23;;;10.53;;
5555;SDS011;2801;50.972;7.856;2023-02-19T06:58:57;28.03;;;9.57;;
5555;SDS011;2801;50.972;7.856;2023-02-19T07:01:27;30.27;;;10.60;;
5555;SDS011;2801;50.972;7.856;2023-02-19T07:03:56;27.77;;;9.93;;
5555;SDS011;2801;50.972;7.856;2023-02-19T07:06:24;24.60;;;8.67;;
5555;SDS011;2801;50.972;7.856;2023-02-19T07:08:53;30.10;;;9.68;;
5555;SDS011;2801;50.972;7.856;2023-02-19T07:11:21;25.53;;;9.73;;
5555;SDS011;2801;50.972;7.856;2023-02-19T07:13:55;27.93;;;10.23;;
5555;SDS011;2801;50.972;7.856;2023-02-19T07:16:24;19.23;;;6.87;;
5555;SDS011;2801;50.972;7.856;2023-02-19T07:18:52;21.50;;;7.93;;
5555;SDS011;2801;50.972;7.856;2023-02-19T07:21:22;25.83;;;7.97;;
5555;SDS011;2801;50.972;7.856;2023-02-19T07:23:50;28.13;;;9.03;;
5555;SDS011;2801;50.972;7.856;2023-02-19T07:26:18;26.83;;;8.27;;
5555;SDS011;2801;50.972;7.856;2023-02-19T07:28:46;23.70;;;7.65;;
5555;SDS011;2801;50.972;7.856;2023-02-19T07:31:16;23.20;;;7.22;;
5555;SDS011;2801;50.972;7.856;2023-02-19T07:33:45;24.30;;;8.97;;
5555;SDS011;2801;50.972;7.856;2023-02-19T07:36:13;27.90;;;8.60;;
5555;SDS011;2801;50.972;7.856;2023-02-19T07:38:43;26.07;;;8.83;;
5555;SDS011;2801;50.972;7.856;2023-02-19T07:41:10;23.43;;;8.20;;
5555;SDS011;2801;50.972;7.856;2023-02-19T07:43:39;23.53;;;9.07;;
5555;SDS011;2801;50.972;7.856;2023-02-19T07:46:07;22.00;;;9.43;;
5555;SDS011;2801;50.972;7.856;2023-02-19T07:48:37;26.57;;;8.97;;
5555;SDS011;2801;50.972;7.856;2023-02-19T07:51:07;33.07;;;12.00;;
5555;SDS011;2801;50.972;7.856;2023-02-19T07:53:40;13.90;;;6.20;;
5555;SDS011;2801;50.972;7.856;2023-02-19T07:56:07;32.70;;;13.13;;
5555;SDS011;2801;50.972;7.856;2023-02-19T07:58:36;31.57;;;10.93;;
5555;SDS011;2801;50.972;7.856;2023-02-19T08:01:15;29.67;;;11.77;;
5555;SDS011;2801;50.972;7.856;2023-02-19T08:04:09;21.03;;;9.00;;
5555;SDS011;2801;50.972;7.856;2023-02-19T08:06:38;16.83;;;6.55;;
5555;SDS011;2801;50.972;7.856;2023-02-19T08:09:06;18.30;;;7.87;;
5555;SDS011;2801;50.972;7.856;2023-02-19T08:11:33;24.70;;;7.93;;
5555;SDS011;2801;50.972;7.856;2023-02-19T08:14:22;21.27;;;8.47;;
5555;SDS011;2801;50.972;7.856;2023-02-19T08:16:51;22.80;;;8.60;;
5555;SDS011;2801;50.972;7.856;2023-02-19T08:19:19;23.70;;;8.50;;
5555;SDS011;2801;50.972;7.856;2023-02-19T08:21:46;20.90;;;7.60;;
5555;SDS011;2801;50.972;7.856;2023-02-19T08:24:13;22.53;;;7.37;;
5555;SDS011;2801;50.972;7.856;2023-02-19T08:26:40;22.37;;;7.63;;
5555;SDS011;2801;50.972;7.856;2023-02-19T08:29:07;21.80;;;8.30;;
5555;SDS011;2801;50.972;7.856;2023-02-19T08:31:34;19.27;;;8.03;;
5555;SDS011;2801;50.972;7.856;2023-02-19T08:34:02;15.53;;;6.83;;
5555;SDS011;2801;50.972;7.856;2023-02-19T08:36:29;21.70;;;7.90;;
5555;SDS011;2801;50.972;7.856;2023-02-19T08:38:56;19.00;;;7.80;;
5555;SDS011;2801;50.972;7.856;2023-02-19T08:41:23;21.93;;;7.80;;
5555;SDS011;2801;50.972;7.856;2023-02-19T08:43:49;31.27;;;9.73;;
5555;SDS011;2801;50.972;7.856;2023-02-19T08:46:16;18.50;;;9.00;;
5555;SDS011;2801;50.972;7.856;2023-02-19T08:48:43;14.07;;;5.50;;
5555;SDS011;2801;50.972;7.856;2023-02-19T08:51:10;17.03;;;6.47;;
5555;SDS011;2801;50.972;7.856;2023-02-19T08:53:39;13.17;;;5.47;;
5555;SDS011;2801;50.972;7.856;2023-02-19T08:56:07;11.73;;;5.70;;
5555;SDS011;2801;50.972;7.856;2023-02-19T08:58:40;17.87;;;8.10;;
5555;SDS011;2801;50.972;7.856;2023-02-19T09:01:12;14.27;;;6.20;;
5555;SDS011;2801;50.972;7.856;2023-02-19T09:03:43;19.97;;;9.60;;
5555;SDS011;2801;50.972;7.856;2023-02-19T09:06:12;17.98;;;6.93;;
5555;SDS011;2801;50.972;7.856;2023-02-19T09:08:43;13.63;;;5.60;;
5555;SDS011;2801;50.972;7.856;2023-02-19T09:11:10;18.63;;;6.30;;
5555;SDS011;2801;50.972;7.856;2023-02-19T09:13:37;18.17;;;7.40;;
5555;SDS011;2801;50.972;7.856;2023-02-19T09:16:04;14.60;;;6.13;;
5555;SDS011;2801;50.972;7.856;2023-02-19T09:18:32;20.73;;;7.83;;
5555;SDS011;2801;50.972;7.856;2023-02-19T09:21:03;17.43;;;6.93;;
5555;SDS011;2801;50.972;7.856;2023-02-19T09:23:32;17.27;;;7.27;;
5555;SDS011;2801;50.972;7.856;2023-02-19T09:26:00;16.10;;;6.47;;
5555;SDS011;2801;50.972;7.856;2023-02-19T09:28:31;17.33;;;6.85;;
5555;SDS011;2801;50.972;7.856;2023-02-19T09:31:03;15.80;;;7.37;;
5555;SDS011;2801;50.972;7.856;2023-02-19T09:33:32;20.33;;;7.37;;
5555;SDS011;2801;50.972;7.856;2023-02-19T09:36:00;16.73;;;7.63;;
5555;SDS011;2801;50.972;7.856;2023-02-19T09:38:28;19.63;;;8.53;;
5555;SDS011;2801;50.972;7.856;2023-02-19T09:40:56;22.00;;;8.03;;
5555;SDS011;2801;50.972;7.856;2023-02-19T09:43:31;17.23;;;7.80;;
5555;SDS011;2801;50.972;7.856;2023-02-19T09:46:03;20.33;;;8.10;;
5555;SDS011;2801;50.972;7.856;2023-02-19T09:49:04;20.03;;;8.20;;
5555;SDS011;2801;50.972;7.856;2023-02-19T09:51:55;24.13;;;8.40;;
5555;SDS011;2801;50.972;7.856;2023-02-19T09:54:31;22.07;;;8.17;;
5555;SDS011;2801;50.972;7.856;2023-02-19T09:57:01;25.20;;;8.83;;
5555;SDS011;2801;50.972;7.856;2023-02-19T10:02:21;16.10;;;8.50;;
5555;SDS011;2801;50.972;7.856;2023-02-19T10:04:50;22.77;;;8.97;;
5555;SDS011;2801;50.972;7.856;2023-02-19T10:07:23;22.60;;;7.73;;
5555;SDS011;2801;50.972;7.856;2023-02-19T10:09:59;20.83;;;7.10;;
5555;SDS011;2801;50.972;7.856;2023-02-19T10:12:48;17.60;;;7.33;;
5555;SDS011;2801;50.972;7.856;2023-02-19T10:18:23;18.50;;;7.57;;
5555;SDS011;2801;50.972;7.856;2023-02-19T10:20:54;19.27;;;7.77;;
5555;SDS011;2801;50.972;7.856;2023-02-19T10:23:22;21.47;;;7.57;;
5555;SDS011;2801;50.972;7.856;2023-02-19T10:25:54;16.63;;;7.57;;
5555;SDS011;2801;50.972;7.856;2023-02-19T10:28:33;20.05;;;8.30;;
5555;SDS011;2801;50.972;7.856;2023-02-19T10:31:02;21.45;;;7.90;;
5555;SDS011;2801;50.972;7.856;2023-02-19T10:33:53;18.83;;;7.97;;
5555;SDS011;2801;50.972;7.856;2023-02-19T10:38:57;20.33;;;8.43;;
5555;SDS011;2801;50.972;7.856;2023-02-19T10:41:26;20.52;;;9.23;;
5555;SDS011;2801;50.972;7.856;2023-02-19T10:44:03;22.13;;;9.30;;
5555;SDS011;2801;50.972;7.856;2023-02-19T10:46:43;21.10;;;9.20;;
5555;SDS011;2801;50.972;7.856;2023-02-19T10:49:31;23.43;;;9.63;;
5555;SDS011;2801;50.972;7.856;2023-02-19T10:52:13;22.95;;;9.40;;
5555;SDS011;2801;50.972;7.856;2023-02-19T10:54:54;26.70;;;9.25;;
5555;SDS011;2801;50.972;7.856;2023-02-19T10:57:46;18.85;;;8.95;;
5555;SDS011;2801;50.972;7.856;2023-02-19T11:02:42;20.33;;;10.05;;
5555;SDS011;2801;50.972;7.856;2023-02-19T11:13:00;16.70;;;8.23;;
5555;SDS011;2801;50.972;7.856;2023-02-19T11:15:32;17.30;;;8.35;;
5555;SDS011;2801;50.972;7.856;2023-02-19T11:20:48;18.52;;;7.82;;
5555;SDS011;2801;50.972;7.856;2023-02-19T11:23:49;16.30;;;7.30;;
5555;SDS011;2801;50.972;7.856;2023-02-19T11:26:17;16.88;;;6.97;;
5555;SDS011;2801;50.972;7.856;2023-02-19T11:28:54;12.32;;;6.65;;
5555;SDS011;2801;50.972;7.856;2023-02-19T11:31:25;17.13;;;7.40;;
5555;SDS011;2801;50.972;7.856;2023-02-19T11:34:01;12.13;;;7.35;;
5555;SDS011;2801;50.972;7.856;2023-02-19T11:36:47;14.60;;;6.80;;
5555;SDS011;2801;50.972;7.856;2023-02-19T11:39:41;11.77;;;6.03;;
5555;SDS011;2801;50.972;7.856;2023-02-19T11:42:22;12.32;;;6.43;;
5555;SDS011;2801;50.972;7.856;2023-02-19T11:53:28;10.60;;;5.20;;
5555;SDS011;2801;50.972;7.856;2023-02-19T11:56:18;8.00;;;4.37;;
5555;SDS011;2801;50.972;7.856;2023-02-19T12:01:56;10.67;;;5.37;;
5555;SDS011;2801;50.972;7.856;2023-02-19T12:08:08;12.73;;;6.70;;
5555;SDS011;2801;50.972;7.856;2023-02-19T12:11:27;19.00;;;7.32;;
5555;SDS011;2801;50.972;7.856;2023-02-19T12:17:16;14.45;;;6.90;;
5555;SDS011;2801;50.972;7.856;2023-02-19T12:25:43;14.07;;;6.53;;
5555;SDS011;2801;50.972;7.856;2023-02-19T12:28:29;14.45;;;6.03;;
5555;SDS011;2801;50.972;7.856;2023-02-19T12:31:16;11.80;;;5.88;;
5555;SDS011;2801;50.972;7.856;2023-02-19T12:34:09;10.30;;;5.25;;
5555;SDS011;2801;50.972;7.856;2023-02-19T12:43:22;8.85;;;4.88;;
5555;SDS011;2801;50.972;7.856;2023-02-19T12:46:00;9.15;;;4.55;;
5555;SDS011;2801;50.972;7.856;2023-02-19T12:51:24;9.10;;;4.22;;
5555;SDS011;2801;50.972;7.856;2023-02-19T12:54:00;8.43;;;4.20;;
5555;SDS011;2801;50.972;7.856;2023-02-19T13:00:03;8.33;;;3.40;;
5555;SDS011;2801;50.972;7.856;2023-02-19T13:03:18;7.65;;;3.75;;
5555;SDS011;2801;50.972;7.856;2023-02-19T13:08:59;7.18;;;3.65;;
5555;SDS011;2801;50.972;7.856;2023-02-19T13:11:42;8.60;;;3.17;;
5555;SDS011;2801;50.972;7.856;2023-02-19T13:16:51;5.97;;;3.80;;
5555;SDS011;2801;50.972;7.856;2023-02-19T13:19:25;7.40;;;4.03;;
5555;SDS011;2801;50.972;7.856;2023-02-19T13:21:55;15.13;;;9.60;;
5555;SDS011;2801;50.972;7.856;2023-02-19T13:25:30;5.13;;;3.60;;
5555;SDS011;2801;50.972;7.856;2023-02-19T13:28:17;5.00;;;2.40;;
5555;SDS011;2801;50.972;7.856;2023-02-19T13:37:00;5.43;;;1.98;;
5555;SDS011;2801;50.972;7.856;2023-02-19T13:39:28;6.22;;;1.95;;
5555;SDS011;2801;50.972;7.856;2023-02-19T13:41:57;3.17;;;1.63;;
5555;SDS011;2801;50.972;7.856;2023-02-19T13:44:25;2.40;;;1.60;;
5555;SDS011;2801;50.972;7.856;2023-02-19T13:46:58;3.47;;;1.90;;
5555;SDS011;2801;50.972;7.856;2023-02-19T13:52:47;3.22;;;2.00;;
5555;SDS011;2801;50.972;7.856;2023-02-19T14:03:28;7.20;;;2.37;;
5555;SDS011;2801;50.972;7.856;2023-02-19T14:06:08;8.07;;;2.60;;
5555;SDS011;2801;50.972;7.856;2023-02-19T14:08:52;5.03;;;2.67;;
5555;SDS011;2801;50.972;7.856;2023-02-19T14:14:22;5.40;;;2.75;;
5555;SDS011;2801;50.972;7.856;2023-02-19T14:16:57;4.97;;;2.38;;
5555;SDS011;2801;50.972;7.856;2023-02-19T14:28:00;7.07;;;3.23;;
5555;SDS011;2801;50.972;7.856;2023-02-19T14:33:28;7.13;;;3.37;;
5555;SDS011;2801;50.972;7.856;2023-02-19T14:38:53;6.57;;;3.43;;
5555;SDS011;2801;50.972;7.856;2023-02-19T14:41:37;10.70;;;4.13;;
5555;SDS011;2801;50.972;7.856;2023-02-19T14:44:30;8.95;;;4.32;;
5555;SDS011;2801;50.972;7.856;2023-02-19T14:47:14;10.80;;;5.13;;
5555;SDS011;2801;50.972;7.856;2023-02-19T14:49:50;7.95;;;4.32;;
5555;SDS011;2801;50.972;7.856;2023-02-19T14:52:30;9.60;;;5.68;;
5555;SDS011;2801;50.972;7.856;2023-02-19T14:55:23;9.95;;;4.80;;
5555;SDS011;2801;50.972;7.856;2023-02-19T14:57:55;12.87;;;5.47;;
5555;SDS011;2801;50.972;7.856;2023-02-19T15:00:30;14.47;;;6.97;;
5555;SDS011;2801;50.972;7.856;2023-02-19T15:03:02;11.32;;;5.15;;
5555;SDS011;2801;50.972;7.856;2023-02-19T15:05:31;11.63;;;5.45;;
5555;SDS011;2801;50.972;7.856;2023-02-19T15:08:11;11.57;;;5.70;;
5555;SDS011;2801;50.972;7.856;2023-02-19T15:10:46;11.80;;;6.03;;
5555;SDS011;2801;50.972;7.856;2023-02-19T15:13:16;15.05;;;5.93;;
5555;SDS011;2801;50.972;7.856;2023-02-19T15:15:51;12.83;;;6.13;;
5555;SDS011;2801;50.972;7.856;2023-02-19T15:18:21;13.80;;;6.47;;
5555;SDS011;2801;50.972;7.856;2023-02-19T15:20:50;14.70;;;6.77;;
5555;SDS011;2801;50.972;7.856;2023-02-19T15:23:26;10.90;;;6.00;;
5555;SDS011;2801;50.972;7.856;2023-02-19T15:25:56;15.40;;;6.47;;
5555;SDS011;2801;50.972;7.856;2023-02-19T15:28:27;13.73;;;6.90;;
5555;SDS011;2801;50.972;7.856;2023-02-19T15:33:25;13.57;;;6.00;;
5555;SDS011;2801;50.972;7.856;2023-02-19T15:35:54;14.00;;;6.70;;
5555;SDS011;2801;50.972;7.856;2023-02-19T15:38:25;17.40;;;7.30;;
5555;SDS011;2801;50.972;7.856;2023-02-19T15:40:53;12.57;;;6.17;;
5555;SDS011;2801;50.972;7.856;2023-02-19T15:43:24;13.53;;;6.43;;
5555;SDS011;2801;50.972;7.856;2023-02-19T15:46:06;11.23;;;6.03;;
5555;SDS011;2801;50.972;7.856;2023-02-19T15:48:44;12.00;;;5.87;;
5555;SDS011;2801;50.972;7.856;2023-02-19T15:51:54;11.37;;;5.93;;
5555;SDS011;2801;50.972;7.856;2023-02-19T15:54:31;9.80;;;5.20;;
5555;SDS011;2801;50.972;7.856;2023-02-19T15:57:11;14.73;;;6.00;;
5555;SDS011;2801;50.972;7.856;2023-02-19T15:59:50;14.03;;;6.33;;
5555;SDS011;2801;50.972;7.856;2023-02-19T16:02:31;14.07;;;6.27;;
5555;SDS011;2801;50.972;7.856;2023-02-19T16:04:59;12.00;;;5.83;;
5555;SDS011;2801;50.972;7.856;2023-02-19T16:07:28;11.60;;;5.93;;
5555;SDS011;2801;50.972;7.856;2023-02-19T16:10:16;22.07;;;7.17;;
5555;SDS011;2801;50.972;7.856;2023-02-19T16:12:55;14.93;;;6.97;;
5555;SDS011;2801;50.972;7.856;2023-02-19T16:15:27;12.57;;;6.30;;
5555;SDS011;2801;50.972;7.856;2023-02-19T16:18:01;14.48;;;6.72;;
5555;SDS011;2801;50.972;7.856;2023-02-19T16:20:28;12.40;;;5.57;;
5555;SDS011;2801;50.972;7.856;2023-02-19T16:23:03;14.43;;;6.20;;
5555;SDS011;2801;50.972;7.856;2023-02-19T16:25:38;12.90;;;5.80;;
5555;SDS011;2801;50.972;7.856;2023-02-19T16:28:10;10.80;;;5.13;;
5555;SDS011;2801;50.972;7.856;2023-02-19T16:30:43;14.13;;;6.33;;
5555;SDS011;2801;50.972;7.856;2023-02-19T16:35:57;12.43;;;6.37;;
5555;SDS011;2801;50.972;7.856;2023-02-19T16:38:58;13.23;;;6.47;;
5555;SDS011;2801;50.972;7.856;2023-02-19T16:46:46;13.10;;;6.47;;
5555;SDS011;2801;50.972;7.856;2023-02-19T16:49:20;14.57;;;7.33;;
5555;SDS011;2801;50.972;7.856;2023-02-19T16:51:49;13.70;;;6.63;;
5555;SDS011;2801;50.972;7.856;2023-02-19T16:54:17;19.23;;;8.07;;
5555;SDS011;2801;50.972;7.856;2023-02-19T16:56:44;15.87;;;7.80;;
5555;SDS011;2801;50.972;7.856;2023-02-19T16:59:11;16.80;;;8.27;;
5555;SDS011;2801;50.972;7.856;2023-02-19T17:01:37;18.13;;;8.30;;
5555;SDS011;2801;50.972;7.856;2023-02-19T17:04:05;18.23;;;8.57;;
5555;SDS011;2801;50.972;7.856;2023-02-19T17:06:37;16.30;;;8.27;;
5555;SDS011;2801;50.972;7.856;2023-02-19T17:09:05;17.17;;;9.63;;
5555;SDS011;2801;50.972;7.856;2023-02-19T17:11:34;14.67;;;8.47;;
5555;SDS011;2801;50.972;7.856;2023-02-19T17:14:01;20.20;;;9.80;;
5555;SDS011;2801;50.972;7.856;2023-02-19T17:16:29;19.33;;;10.40;;
5555;SDS011;2801;50.972;7.856;2023-02-19T17:19:11;23.13;;;9.80;;
5555;SDS011;2801;50.972;7.856;2023-02-19T17:21:43;20.70;;;9.83;;
5555;SDS011;2801;50.972;7.856;2023-02-19T17:24:11;17.63;;;8.80;;
5555;SDS011;2801;50.972;7.856;2023-02-19T17:26:39;22.40;;;9.97;;
5555;SDS011;2801;50.972;7.856;2023-02-19T17:29:06;15.53;;;7.37;;
5555;SDS011;2801;50.972;7.856;2023-02-19T17:31:39;21.10;;;8.83;;
5555;SDS011;2801;50.972;7.856;2023-02-19T17:34:06;17.77;;;8.90;;
5555;SDS011;2801;50.972;7.856;2023-02-19T17:36:33;17.03;;;8.20;;
5555;SDS011;2801;50.972;7.856;2023-02-19T17:39:02;16.80;;;8.93;;
5555;SDS011;2801;50.972;7.856;2023-02-19T17:41:32;18.57;;;9.27;;
5555;SDS011;2801;50.972;7.856;2023-02-19T17:43:59;25.13;;;10.00;;
5555;SDS011;2801;50.972;7.856;2023-02-19T17:46:26;19.40;;;9.40;;
5555;SDS011;2801;50.972;7.856;2023-02-19T17:48:53;18.60;;;9.70;;
5555;SDS011;2801;50.972;7.856;2023-02-19T17:51:21;19.00;;;9.60;;
5555;SDS011;2801;50.972;7.856;2023-02-19T17:53:48;20.73;;;10.37;;
5555;SDS011;2801;50.972;7.856;2023-02-19T17:56:19;20.20;;;10.30;;
5555;SDS011;2801;50.972;7.856;2023-02-19T17:58:50;22.73;;;10.07;;
5555;SDS011;2801;50.972;7.856;2023-02-19T18:01:18;23.00;;;10.80;;
5555;SDS011;2801;50.972;7.856;2023-02-19T18:03:45;27.50;;;10.97;;
5555;SDS011;2801;50.972;7.856;2023-02-19T18:06:12;25.30;;;11.40;;